Time;durP1;ratioP1;P1;durP2;ratioP2;P2;SDS_P1;SDS_P2;PMS_P1;PMS_P2;Temp;Humidity;BMP_temperature;BMP_pressure;BME280_temperature;BME280_humidity;BME280_pressure;Samples;Min_cycle;Max_cycle;Signal;HPM_P1;HPM_P2
2024/01/06 00:02:40;;;;;;;4.13;1.40;;;;;;;18.32;55.60;95459.50;10392407;28;20659;-30
2024/01/06 00:07:41;;;;;;;2.50;1.47;;;;;;;18.33;55.46;95458.63;10396987;28;20497;-29
2024/01/06 00:12:41;;;;;;;4.33;1.60;;;;;;;18.34;55.24;95447.63;10392800;28;20037;-30
2024/01/06 00:17:41;;;;;;;3.90;1.83;;;;;;;18.35;55.14;95457.72;10390857;28;20041;-29
2024/01/06 00:22:44;;;;;;;2.57;1.43;;;;;;;18.30;55.22;95453.59;10392614;28;20394;-29
2024/01/06 00:27:44;;;;;;;3.38;1.48;;;;;;;18.36;55.21;95468.69;10388869;28;20033;-30
2024/01/06 00:32:47;;;;;;;3.83;1.87;;;;;;;18.38;55.03;95472.03;10404332;28;20038;-32
2024/01/06 00:37:47;;;;;;;3.15;1.45;;;;;;;18.35;55.55;95472.09;10391667;28;20520;-29
2024/01/06 00:42:47;;;;;;;1.40;1.30;;;;;;;18.37;55.00;95476.28;10396475;28;20029;-29
2024/01/06 00:47:48;;;;;;;2.20;1.50;;;;;;;18.34;54.92;95480.56;10398536;28;20113;-31
2024/01/06 00:52:52;;;;;;;4.50;1.47;;;;;;;18.33;54.96;95492.38;10401992;28;20030;-30
2024/01/06 00:57:52;;;;;;;3.65;1.63;;;;;;;18.34;54.94;95511.78;10403004;28;20037;-30
2024/01/06 01:02:53;;;;;;;1.83;1.40;;;;;;;18.32;55.01;95505.91;10403535;28;20041;-31
2024/01/06 01:07:53;;;;;;;4.03;1.33;;;;;;;18.33;54.94;95520.25;10404331;28;20071;-29
2024/01/06 01:12:53;;;;;;;2.20;1.50;;;;;;;18.32;55.03;95528.72;10398358;28;20401;-29
2024/01/06 01:17:54;;;;;;;3.87;1.67;;;;;;;18.34;54.90;95532.03;10388762;28;20036;-30
2024/01/06 01:22:54;;;;;;;2.37;0.90;;;;;;;18.33;54.97;95530.38;10395976;28;20041;-30
2024/01/06 01:27:54;;;;;;;2.57;1.17;;;;;;;18.32;54.98;95528.72;10397688;28;20037;-29
2024/01/06 01:32:55;;;;;;;4.70;1.60;;;;;;;18.33;55.11;95540.50;10396781;28;20440;-29
2024/01/06 01:37:55;;;;;;;4.20;1.33;;;;;;;18.35;54.77;95551.44;10403630;28;20409;-30
2024/01/06 01:42:55;;;;;;;4.20;1.50;;;;;;;18.34;54.72;95551.50;10399925;28;20034;-29
2024/01/06 01:47:56;;;;;;;3.80;1.77;;;;;;;18.40;54.68;95561.53;10395832;28;20033;-29
2024/01/06 01:52:56;;;;;;;5.57;1.83;;;;;;;18.41;54.57;95560.66;10399423;28;20043;-29
2024/01/06 01:57:57;;;;;;;3.05;1.30;;;;;;;18.39;54.61;95563.22;10394776;28;20322;-29
2024/01/06 02:02:59;;;;;;;4.75;1.58;;;;;;;18.40;54.36;95561.53;10400470;28;20029;-30
2024/01/06 02:07:59;;;;;;;5.43;1.95;;;;;;;18.38;54.69;95565.78;10392673;28;20041;-29
2024/01/06 02:13:12;;;;;;;4.67;1.80;;;;;;;18.38;54.97;95576.75;10398210;28;20041;-29
2024/01/06 02:18:13;;;;;;;3.05;1.15;;;;;;;18.33;55.16;95559.97;10396359;28;20657;-29
2024/01/06 02:23:13;;;;;;;3.60;1.27;;;;;;;18.35;55.42;95565.84;10395903;28;20032;-29
2024/01/06 02:28:13;;;;;;;3.77;1.40;;;;;;;18.35;54.99;95581.84;10395926;28;20037;-29
2024/01/06 02:33:14;;;;;;;4.07;1.20;;;;;;;18.36;55.02;95586.09;10392233;28;20451;-29
2024/01/06 02:38:14;;;;;;;4.57;1.10;;;;;;;18.37;55.09;95586.91;10398328;28;20862;-29
2024/01/06 02:43:15;;;;;;;4.40;1.27;;;;;;;18.36;55.07;95590.31;10393419;28;20038;-29
2024/01/06 02:48:15;;;;;;;2.43;1.30;;;;;;;18.34;55.24;95592.03;10392614;28;20037;-29
2024/01/06 02:53:16;;;;;;;4.25;1.38;;;;;;;18.35;55.11;95593.72;10394640;28;20045;-29
2024/01/06 02:58:16;;;;;;;4.45;1.27;;;;;;;18.35;54.67;95591.16;10395438;28;20083;-29
2024/01/06 03:03:17;;;;;;;2.80;1.13;;;;;;;18.35;55.06;95594.53;10394189;28;20477;-29
2024/01/06 03:08:17;;;;;;;3.07;1.37;;;;;;;18.35;55.00;95591.16;10390615;28;20044;-30
2024/01/06 03:13:17;;;;;;;3.60;1.27;;;;;;;18.33;55.00;95582.78;10397207;28;20137;-30
2024/01/06 03:18:18;;;;;;;3.47;1.00;;;;;;;18.33;54.71;95590.38;10393131;28;20037;-30
2024/01/06 03:23:18;;;;;;;7.20;1.30;;;;;;;18.32;54.81;95588.69;10394040;28;20087;-30
2024/01/06 03:28:18;;;;;;;5.20;1.10;;;;;;;18.35;54.39;95586.91;10395497;28;20037;-31
2024/01/06 03:33:19;;;;;;;3.83;1.20;;;;;;;18.36;54.64;95577.63;10388782;28;20062;-29
2024/01/06 03:38:19;;;;;;;2.87;1.13;;;;;;;18.34;54.76;95576.84;10387992;28;20810;-29
2024/01/06 03:43:19;;;;;;;1.87;0.90;;;;;;;18.34;54.93;95589.50;10394088;28;20088;-30
2024/01/06 03:48:20;;;;;;;4.10;1.17;;;;;;;18.30;54.45;95575.19;10384116;28;20512;-30
2024/01/06 03:53:22;;;;;;;2.27;1.23;;;;;;;18.35;54.61;95588.63;10381338;28;20048;-29
2024/01/06 03:58:23;;;;;;;2.65;1.38;;;;;;;18.34;54.46;95581.91;10386165;28;20033;-29
2024/01/06 04:03:23;;;;;;;2.93;0.97;;;;;;;18.30;54.89;95592.94;10381574;28;20029;-29
2024/01/06 04:08:23;;;;;;;1.93;1.00;;;;;;;18.33;54.88;95601.31;10392642;28;20038;-30
2024/01/06 04:13:24;;;;;;;1.47;0.93;;;;;;;18.28;54.85;95587.03;10381342;28;20113;-29
2024/01/06 04:18:25;;;;;;;1.20;0.80;;;;;;;18.32;54.70;95597.13;10380303;28;20041;-29
2024/01/06 04:23:25;;;;;;;2.17;1.33;;;;;;;18.33;54.64;95601.31;10396623;28;20025;-29
2024/01/06 04:28:25;;;;;;;2.43;1.20;;;;;;;18.31;54.59;95597.13;10385610;28;20292;-29
2024/01/06 04:33:26;;;;;;;1.23;0.90;;;;;;;18.30;54.75;95592.94;10409855;28;20306;-29
2024/01/06 04:38:26;;;;;;;3.70;1.30;;;;;;;18.32;54.34;95601.38;10395355;28;20073;-30
2024/01/06 04:43:26;;;;;;;6.87;1.30;;;;;;;18.28;54.46;95602.25;10398854;28;20104;-29
2024/01/06 04:48:27;;;;;;;4.97;1.07;;;;;;;18.27;54.63;95601.41;10395304;28;20498;-30
2024/01/06 04:53:27;;;;;;;2.03;0.80;;;;;;;18.26;54.62;95606.50;10401422;28;20038;-30
2024/01/06 04:58:27;;;;;;;1.47;1.10;;;;;;;18.30;54.71;95598.84;10394461;28;20042;-28
2024/01/06 05:03:28;;;;;;;4.17;1.60;;;;;;;18.28;54.67;95600.56;10389326;28;20038;-28
2024/01/06 05:08:30;;;;;;;2.70;1.00;;;;;;;18.28;54.58;95608.16;10385541;28;20394;-29
2024/01/06 05:13:31;;;;;;;4.05;1.00;;;;;;;18.31;54.57;95609.81;10387331;28;20065;-28
2024/01/06 05:18:31;;;;;;;1.50;1.07;;;;;;;18.30;54.54;95621.66;10395308;28;20047;-28
2024/01/06 05:23:31;;;;;;;2.87;2.00;;;;;;;18.29;54.48;95619.09;10383188;28;20029;-28
2024/01/06 05:28:32;;;;;;;3.30;1.30;;;;;;;18.32;54.97;95629.25;10401253;28;20029;-28
2024/01/06 05:33:32;;;;;;;4.53;1.10;;;;;;;18.29;55.17;95629.25;10407753;28;20044;-28
2024/01/06 05:38:32;;;;;;;2.97;1.00;;;;;;;18.25;54.80;95625.09;10391189;28;20025;-28
2024/01/06 05:43:33;;;;;;;1.50;0.83;;;;;;;18.28;55.07;95638.56;10401502;28;20037;-28
2024/01/06 05:48:33;;;;;;;2.37;1.00;;;;;;;18.32;54.83;95641.91;10384526;28;20045;-28
2024/01/06 05:53:33;;;;;;;2.77;0.80;;;;;;;18.29;55.08;95644.44;10388318;28;20042;-29
2024/01/06 05:58:34;;;;;;;1.77;0.80;;;;;;;18.25;54.76;95640.31;10390552;28;20041;-28
2024/01/06 06:03:34;;;;;;;1.57;0.87;;;;;;;18.28;54.68;95655.44;10389391;28;20457;-28
2024/01/06 06:08:34;;;;;;;1.37;0.90;;;;;;;18.25;54.90;95658.03;10396687;28;20026;-28
2024/01/06 06:13:35;;;;;;;1.50;0.87;;;;;;;18.26;54.59;95649.56;10383589;28;20030;-28
2024/01/06 06:18:35;;;;;;;1.33;0.70;;;;;;;18.28;54.47;95655.44;10399541;28;20035;-28
2024/01/06 06:23:35;;;;;;;1.97;0.93;;;;;;;18.30;54.49;95661.34;10395057;28;20034;-29
2024/01/06 06:28:36;;;;;;;2.23;0.70;;;;;;;18.32;54.63;95672.31;10389991;28;20033;-29
2024/01/06 06:33:36;;;;;;;1.47;0.97;;;;;;;18.33;54.37;95674.81;10386373;28;20296;-29
2024/01/06 06:38:37;;;;;;;2.80;0.80;;;;;;;18.37;54.07;95700.94;10406058;28;20037;-28
2024/01/06 06:43:37;;;;;;;2.25;1.00;;;;;;;18.38;54.19;95702.59;10392545;28;20040;-29
2024/01/06 06:48:40;;;;;;;1.13;0.90;;;;;;;18.37;54.18;95703.47;10403894;28;20041;-29
2024/01/06 06:53:40;;;;;;;0.95;0.70;;;;;;;18.36;54.14;95706.88;10378698;28;20038;-28
2024/01/06 06:58:41;;;;;;;1.10;0.60;;;;;;;18.38;54.11;95710.19;10390363;28;20751;-29
2024/01/06 07:03:42;;;;;;;0.83;0.60;;;;;;;18.39;54.02;95719.47;10406174;28;20040;-29
2024/01/06 07:08:42;;;;;;;5.63;0.85;;;;;;;18.37;54.27;95716.13;10391924;28;20041;-28
2024/01/06 07:13:42;;;;;;;2.47;0.90;;;;;;;18.38;53.89;95720.34;10389314;28;20025;-29
2024/01/06 07:18:43;;;;;;;2.00;0.70;;;;;;;18.31;54.08;95711.16;10376492;28;20045;-30
2024/01/06 07:23:43;;;;;;;2.55;0.93;;;;;;;18.38;53.83;95720.34;10385459;28;20026;-29
2024/01/06 07:28:46;;;;;;;2.10;0.80;;;;;;;18.36;54.14;95732.19;10384766;28;20039;-28
2024/01/06 07:33:46;;;;;;;2.15;0.93;;;;;;;18.35;54.61;95735.59;10381559;28;20026;-30
2024/01/06 07:38:47;;;;;;;1.33;1.00;;;;;;;18.36;54.71;95729.66;10387949;28;20052;-29
2024/01/06 07:43:47;;;;;;;3.03;0.90;;;;;;;18.35;54.59;95733.88;10378141;28;20022;-29
2024/01/06 07:48:48;;;;;;;1.80;0.87;;;;;;;18.39;54.77;95732.16;10384397;28;20034;-29
2024/01/06 07:53:48;;;;;;;2.20;1.30;;;;;;;18.39;54.63;95742.28;10391644;28;20307;-29
2024/01/06 07:58:48;;;;;;;2.78;1.00;;;;;;;18.39;54.66;95742.28;10399626;28;20501;-29
2024/01/06 08:03:49;;;;;;;4.30;2.07;;;;;;;18.39;54.13;95752.41;10395769;28;20460;-29
2024/01/06 08:08:49;;;;;;;3.60;2.40;;;;;;;18.37;53.72;95747.41;10396683;28;20100;-29
2024/01/06 08:13:50;;;;;;;10.43;4.22;;;;;;;18.37;52.83;95749.06;10386864;28;20463;-29
2024/01/06 08:18:50;;;;;;;9.20;4.93;;;;;;;18.35;54.21;95749.09;10390838;28;20536;-29
2024/01/06 08:23:50;;;;;;;7.57;4.37;;;;;;;18.32;54.92;95750.84;10397183;28;20408;-29
2024/01/06 08:28:51;;;;;;;6.77;3.77;;;;;;;18.38;54.73;95755.81;10394367;28;20029;-29
2024/01/06 08:33:51;;;;;;;5.60;4.10;;;;;;;18.42;52.61;95762.53;10388975;28;20033;-29
2024/01/06 08:38:51;;;;;;;6.87;4.63;;;;;;;18.40;53.47;95769.31;10398540;28;20147;-29
2024/01/06 08:43:52;;;;;;;7.70;5.20;;;;;;;18.28;54.38;95766.91;10390769;28;20037;-29
2024/01/06 08:48:52;;;;;;;9.90;4.43;;;;;;;18.24;54.79;95775.44;10388246;28;20383;-29
2024/01/06 08:53:53;;;;;;;5.10;4.00;;;;;;;18.29;55.20;95787.22;10387105;28;20533;-29
2024/01/06 08:58:54;;;;;;;3.85;3.45;;;;;;;18.26;54.35;95796.50;10391067;28;20394;-29
2024/01/06 09:03:54;;;;;;;5.05;3.30;;;;;;;18.24;55.41;95799.06;10390212;28;20076;-29
2024/01/06 09:08:54;;;;;;;4.83;3.77;;;;;;;18.21;55.55;95795.72;10398490;28;20041;-27
2024/01/06 09:13:55;;;;;;;5.70;3.97;;;;;;;18.23;55.07;95806.66;10392554;28;20297;-30
2024/01/06 09:18:55;;;;;;;4.40;3.20;;;;;;;18.24;55.07;95800.78;10386101;28;20056;-29
2024/01/06 09:23:56;;;;;;;6.37;3.30;;;;;;;18.24;54.69;95800.78;10399065;28;20043;-28
2024/01/06 09:28:56;;;;;;;4.40;3.28;;;;;;;18.21;55.43;95788.13;10391995;28;20041;-29
2024/01/06 09:34:01;;;;;;;6.93;3.33;;;;;;;18.22;55.36;95797.41;10388265;28;20049;-29
2024/01/06 09:39:01;;;;;;;5.55;3.00;;;;;;;18.20;55.50;95791.53;10406744;28;20040;-29
2024/01/06 09:44:02;;;;;;;3.38;3.08;;;;;;;18.18;54.91;95793.25;10395466;28;20123;-29
2024/01/06 09:49:02;;;;;;;3.97;3.10;;;;;;;18.21;55.31;95803.31;10391326;28;20040;-28
2024/01/06 09:54:12;;;;;;;3.40;2.60;;;;;;;18.18;55.02;95810.97;10395685;28;20570;-29
2024/01/06 09:59:12;;;;;;;4.43;2.90;;;;;;;18.19;54.54;95812.66;10396976;28;20104;-30
2024/01/06 10:04:12;;;;;;;2.77;2.33;;;;;;;18.22;54.29;95820.19;10401847;28;20060;-29
2024/01/06 10:09:13;;;;;;;2.60;2.40;;;;;;;18.24;54.13;95814.25;10389097;28;20041;-28
2024/01/06 10:14:13;;;;;;;2.53;2.00;;;;;;;18.27;53.88;95813.38;10400399;28;20037;-30
2024/01/06 10:19:13;;;;;;;2.93;2.30;;;;;;;18.24;53.29;95814.25;10397503;28;20033;-30
2024/01/06 10:24:14;;;;;;;2.67;2.23;;;;;;;18.27;53.79;95814.25;10395654;28;20036;-29
2024/01/06 10:29:14;;;;;;;4.22;2.15;;;;;;;18.26;53.26;95816.78;10394047;28;20037;-29
2024/01/06 10:34:15;;;;;;;4.10;2.27;;;;;;;18.26;53.59;95826.91;10393128;28;20037;-29
2024/01/06 10:39:15;;;;;;;4.20;1.88;;;;;;;18.24;53.41;95815.97;10398938;28;20425;-29
2024/01/06 10:44:16;;;;;;;2.60;2.40;;;;;;;18.21;53.59;95803.31;10392291;28;20030;-29
2024/01/06 10:49:17;;;;;;;2.50;2.30;;;;;;;18.30;52.77;95810.84;10393018;28;20040;-28
2024/01/06 10:54:19;;;;;;;3.65;2.88;;;;;;;18.28;52.71;95807.47;10388490;28;20833;-28
2024/01/06 10:59:22;;;;;;;4.97;3.05;;;;;;;18.27;52.05;95800.72;10392122;28;20408;-29
2024/01/06 11:04:23;;;;;;;2.88;2.35;;;;;;;18.27;53.87;95803.25;10399388;28;20045;-28
2024/01/06 11:09:33;;;;;;;3.00;2.55;;;;;;;18.30;54.21;95808.28;10393414;28;20048;-29
2024/01/06 11:14:37;;;;;;;6.18;2.22;;;;;;;18.27;54.03;95805.78;10386910;28;20413;-29
2024/01/06 11:19:37;;;;;;;2.88;2.45;;;;;;;18.28;53.94;95815.06;10387089;28;20042;-29
2024/01/06 11:24:43;;;;;;;2.63;2.13;;;;;;;18.29;53.05;95801.53;10396166;28;20033;-29
2024/01/06 11:29:44;;;;;;;2.85;2.17;;;;;;;18.27;53.56;95804.09;10387881;28;20448;-29
2024/01/06 11:34:49;;;;;;;4.53;2.33;;;;;;;18.27;53.53;95801.56;10383928;28;20061;-29
2024/01/06 11:39:50;;;;;;;2.92;2.65;;;;;;;18.34;52.98;95795.56;10390593;28;20029;-28
2024/01/06 11:44:50;;;;;;;3.78;2.10;;;;;;;18.30;52.70;95788.03;10392978;28;20045;-28
2024/01/06 11:49:54;;;;;;;2.93;2.07;;;;;;;18.31;52.67;95789.69;10384134;28;20033;-28
2024/01/06 11:54:55;;;;;;;3.75;2.00;;;;;;;18.29;53.11;95793.91;10395628;28;20437;-29
2024/01/06 11:59:56;;;;;;;2.20;1.70;;;;;;;18.32;52.20;95796.47;10394093;28;20029;-29
2024/01/06 12:04:56;;;;;;;2.73;1.57;;;;;;;18.29;52.00;95796.47;10397774;28;20033;-29
2024/01/06 12:10:03;;;;;;;4.60;2.03;;;;;;;18.30;52.48;95793.09;10388803;28;20033;-28
2024/01/06 12:15:05;;;;;;;3.50;1.85;;;;;;;18.26;53.00;95782.13;10394902;28;20034;-28
2024/01/06 12:20:08;;;;;;;4.82;1.65;;;;;;;18.31;52.00;95785.47;10388945;28;20033;-29
2024/01/06 12:25:09;;;;;;;2.10;1.85;;;;;;;18.27;51.07;95775.38;10394365;28;20061;-28
2024/01/06 12:30:18;;;;;;;1.75;1.58;;;;;;;18.33;52.25;95788.00;10387964;28;20061;-29
2024/01/06 12:35:20;;;;;;;3.08;1.20;;;;;;;18.40;49.59;95766.78;10393502;28;20038;-30
2024/01/06 12:40:21;;;;;;;1.08;0.98;;;;;;;18.43;49.35;95769.25;10392871;28;20456;-29
2024/01/06 12:45:22;;;;;;;1.65;1.10;;;;;;;18.43;49.51;95769.25;10397858;28;20025;-29
2024/01/06 12:50:22;;;;;;;1.42;0.85;;;;;;;18.44;48.61;95776.84;10398606;28;20040;-29
2024/01/06 12:55:22;;;;;;;2.13;1.00;;;;;;;18.43;48.26;95759.13;10397266;28;20068;-30
2024/01/06 13:00:23;;;;;;;1.80;1.50;;;;;;;18.45;48.06;95773.47;10390794;28;20300;-29
2024/01/06 13:05:23;;;;;;;1.57;1.47;;;;;;;18.48;47.51;95772.56;10396852;28;20045;-29
2024/01/06 13:10:24;;;;;;;1.47;1.30;;;;;;;18.47;49.12;95776.81;10400679;28;20382;-29
2024/01/06 13:15:24;;;;;;;1.13;1.02;;;;;;;18.39;49.41;95760.88;10398796;28;20041;-28
2024/01/06 13:20:24;;;;;;;1.52;1.20;;;;;;;18.45;50.68;95775.16;10390900;28;20110;-28
2024/01/06 13:25:25;;;;;;;1.63;1.40;;;;;;;18.41;50.51;95781.13;10395674;28;20436;-30
2024/01/06 13:30:25;;;;;;;5.20;1.60;;;;;;;18.43;48.86;95784.47;10393142;28;20041;-29
2024/01/06 13:35:26;;;;;;;1.83;1.20;;;;;;;18.36;52.69;95790.47;10391402;28;20044;-29
2024/01/06 13:40:26;;;;;;;4.70;1.00;;;;;;;18.38;50.43;95786.22;10391165;28;20038;-28
2024/01/06 13:45:27;;;;;;;1.80;1.13;;;;;;;18.35;51.19;95789.63;10400532;28;20465;-29
2024/01/06 13:50:30;;;;;;;4.40;1.40;;;;;;;18.33;52.52;95788.81;10392535;28;20042;-30
2024/01/06 13:55:30;;;;;;;2.92;1.10;;;;;;;18.25;52.02;95779.63;10395257;28;20050;-31
2024/01/06 14:00:30;;;;;;;3.23;1.60;;;;;;;18.31;52.42;95797.31;10393545;28;20041;-31
2024/01/06 14:05:32;;;;;;;1.70;1.10;;;;;;;18.30;51.99;95798.16;10400626;28;20029;-29
2024/01/06 14:10:32;;;;;;;1.65;1.23;;;;;;;18.36;51.71;95795.56;10395746;28;20041;-29
2024/01/06 14:15:33;;;;;;;1.43;1.27;;;;;;;18.34;52.66;95804.88;10393537;28;20033;-29
2024/01/06 14:20:37;;;;;;;7.57;2.40;;;;;;;18.34;52.70;95799.81;10390210;28;20837;-29
2024/01/06 14:25:38;;;;;;;2.92;1.38;;;;;;;18.34;52.03;95804.88;10394591;28;20582;-29
2024/01/06 14:30:38;;;;;;;3.30;1.63;;;;;;;18.33;52.54;95813.34;10393116;28;20037;-29
2024/01/06 14:35:38;;;;;;;1.50;1.13;;;;;;;18.26;49.29;95804.13;10390547;28;20034;-29
2024/01/06 14:40:39;;;;;;;3.53;1.43;;;;;;;18.29;51.69;95810.00;10394118;28;20422;-29
2024/01/06 14:45:39;;;;;;;1.53;1.20;;;;;;;18.36;48.65;95813.28;10392672;28;20026;-30
2024/01/06 14:50:39;;;;;;;2.95;1.38;;;;;;;18.34;51.53;95822.63;10393307;28;20049;-30
2024/01/06 14:55:40;;;;;;;2.90;1.67;;;;;;;18.28;52.38;95822.66;10393090;28;20395;-29
2024/01/06 15:00:40;;;;;;;2.85;1.15;;;;;;;18.35;49.72;95831.88;10396149;28;20292;-28
2024/01/06 15:05:41;;;;;;;2.58;2.15;;;;;;;18.28;53.28;95840.38;10392680;28;20034;-29
2024/01/06 15:10:41;;;;;;;3.77;1.77;;;;;;;18.30;52.55;95843.78;10396734;28;20033;-29
2024/01/06 15:15:41;;;;;;;2.97;1.30;;;;;;;18.29;52.64;95842.94;10391810;28;20092;-29
2024/01/06 15:20:42;;;;;;;4.17;1.47;;;;;;;18.28;53.26;95846.31;10395568;28;20033;-29
2024/01/06 15:25:42;;;;;;;4.00;1.33;;;;;;;18.29;53.10;95837.00;10385469;28;20033;-29
2024/01/06 15:30:45;;;;;;;2.77;1.50;;;;;;;18.31;51.63;95835.31;10389613;28;20064;-28
2024/01/06 15:35:45;;;;;;;2.90;1.50;;;;;;;18.36;50.66;95846.22;10393615;28;20560;-29
2024/01/06 15:40:45;;;;;;;9.50;2.57;;;;;;;18.32;49.56;95847.97;10382941;28;20041;-29
2024/01/06 15:45:46;;;;;;;5.80;2.30;;;;;;;18.32;50.97;95852.22;10396134;28;20037;-29
2024/01/06 15:50:46;;;;;;;2.37;1.57;;;;;;;18.30;52.22;95858.97;10388786;28;20104;-28
2024/01/06 15:55:46;;;;;;;2.47;1.50;;;;;;;18.33;52.00;95864.03;10404367;28;20298;-29
2024/01/06 16:00:47;;;;;;;2.17;1.40;;;;;;;18.31;52.44;95860.63;10385595;28;20302;-29
2024/01/06 16:05:47;;;;;;;2.93;1.83;;;;;;;18.36;49.99;95863.97;10383802;28;20057;-30
2024/01/06 16:10:48;;;;;;;3.50;1.58;;;;;;;18.38;48.52;95872.38;10379155;28;20292;-29
2024/01/06 16:15:50;;;;;;;3.00;1.58;;;;;;;18.37;50.94;95875.78;10393874;28;20046;-29
2024/01/06 16:20:53;;;;;;;3.17;1.67;;;;;;;18.33;51.53;95869.09;10384841;28;20029;-29
2024/01/06 16:25:53;;;;;;;6.22;1.77;;;;;;;18.30;51.24;95864.03;10393812;28;20018;-29
2024/01/06 16:30:53;;;;;;;6.10;1.63;;;;;;;18.33;50.71;95872.44;10393311;28;20039;-29
2024/01/06 16:35:54;;;;;;;2.03;1.60;;;;;;;18.34;47.61;95880.91;10398135;28;20064;-29
2024/01/06 16:40:55;;;;;;;3.23;2.07;;;;;;;18.38;46.77;95869.84;10390041;28;20288;-28
2024/01/06 16:45:55;;;;;;;3.50;2.03;;;;;;;18.38;47.95;95874.91;10387975;28;20030;-29
2024/01/06 16:50:56;;;;;;;2.27;1.67;;;;;;;18.41;48.31;95879.97;10383643;28;20045;-28
2024/01/06 16:55:56;;;;;;;6.67;2.73;;;;;;;18.35;48.09;95885.91;10391783;28;20030;-29
2024/01/06 17:00:56;;;;;;;2.73;2.07;;;;;;;18.37;50.68;95889.28;10396686;28;20083;-29
2024/01/06 17:05:57;;;;;;;5.93;2.20;;;;;;;18.30;48.05;95889.38;10397922;28;20116;-29
2024/01/06 17:10:57;;;;;;;4.37;2.07;;;;;;;18.35;47.42;95892.69;10389946;28;20034;-29
2024/01/06 17:15:58;;;;;;;3.38;2.45;;;;;;;18.37;46.50;95899.44;10393536;28;20029;-28
2024/01/06 17:21:00;;;;;;;3.47;2.07;;;;;;;18.34;46.20;95896.09;10373450;28;20513;-29
2024/01/06 17:26:00;;;;;;;3.47;1.80;;;;;;;18.38;45.57;95902.78;10371712;28;20050;-28
2024/01/06 17:31:00;;;;;;;5.03;2.37;;;;;;;18.36;50.40;95904.50;10386398;28;20037;-29
2024/01/06 17:36:01;;;;;;;4.60;2.07;;;;;;;18.39;50.29;95912.06;10375911;28;20033;-28
2024/01/06 17:41:01;;;;;;;8.73;1.83;;;;;;;18.35;50.94;95918.88;10384536;28;20380;-29
2024/01/06 17:46:02;;;;;;;3.70;2.23;;;;;;;18.33;52.25;95917.22;10384335;28;20029;-29
2024/01/06 17:51:02;;;;;;;4.30;1.80;;;;;;;18.33;51.74;95919.75;10385309;28;20810;-29
2024/01/06 17:56:03;;;;;;;2.60;1.58;;;;;;;18.34;49.73;95921.44;10397345;28;20037;-29
2024/01/06 18:01:04;;;;;;;2.40;1.52;;;;;;;18.35;46.25;95918.88;10374281;28;20045;-29
2024/01/06 18:06:04;;;;;;;2.60;1.65;;;;;;;18.35;46.80;95928.19;10372336;28;20560;-29
2024/01/06 18:11:04;;;;;;;2.60;1.70;;;;;;;18.34;46.29;95934.09;10373457;28;20421;-29
2024/01/06 18:16:06;;;;;;;2.70;2.00;;;;;;;18.32;48.42;95923.97;10383535;28;20497;-28
2024/01/06 18:21:08;;;;;;;2.90;2.10;;;;;;;18.31;50.43;95931.59;10374368;28;20040;-30
2024/01/06 18:26:09;;;;;;;2.50;1.67;;;;;;;18.30;50.13;95932.44;10384286;28;20029;-29
2024/01/06 18:31:09;;;;;;;3.35;1.70;;;;;;;18.26;52.84;95928.25;10391805;28;20033;-29
2024/01/06 18:36:10;;;;;;;3.28;2.00;;;;;;;18.32;52.32;95935.84;10403404;28;20603;-30
2024/01/06 18:41:11;;;;;;;4.53;2.00;;;;;;;18.33;52.02;95940.84;10382485;28;20033;-28
2024/01/06 18:46:11;;;;;;;5.63;2.22;;;;;;;18.34;52.54;95941.72;10399228;28;20056;-29
2024/01/06 18:51:12;;;;;;;3.40;2.73;;;;;;;18.36;51.47;95945.91;10391875;28;20777;-29
2024/01/06 18:56:12;;;;;;;2.53;2.00;;;;;;;18.37;51.40;95941.66;10405534;28;20292;-29
2024/01/06 19:01:13;;;;;;;2.97;2.33;;;;;;;18.35;52.57;95943.38;10385516;28;20046;-26
2024/01/06 19:06:14;;;;;;;1.60;1.30;;;;;;;18.31;51.31;95934.13;10387232;28;20480;-27
2024/01/06 19:11:15;;;;;;;2.20;1.77;;;;;;;18.36;50.56;95940.00;10394138;28;20030;-29
2024/01/06 19:16:15;;;;;;;2.47;1.97;;;;;;;18.38;50.60;95938.25;10387576;28;20050;-29
2024/01/06 19:21:15;;;;;;;4.77;2.00;;;;;;;18.41;48.51;95936.53;10381637;28;20306;-30
2024/01/06 19:26:16;;;;;;;2.07;1.80;;;;;;;18.38;51.73;95938.25;10389647;28;20034;-29
2024/01/06 19:31:17;;;;;;;3.13;1.92;;;;;;;18.40;50.88;95946.72;10394259;28;20693;-29
2024/01/06 19:36:17;;;;;;;4.77;1.87;;;;;;;18.39;51.65;95940.78;10385745;28;20033;-28
2024/01/06 19:41:18;;;;;;;3.72;2.08;;;;;;;18.38;53.29;95944.19;10386033;28;20032;-29
2024/01/06 19:46:18;;;;;;;3.10;1.80;;;;;;;18.35;52.74;95944.19;10381695;28;20047;-29
2024/01/06 19:51:18;;;;;;;2.13;1.73;;;;;;;18.36;51.85;95934.91;10383136;28;20512;-28
2024/01/06 19:56:19;;;;;;;3.55;2.00;;;;;;;18.37;51.66;95934.06;10373263;28;20026;-30
2024/01/06 20:01:20;;;;;;;5.72;1.83;;;;;;;18.36;52.13;95940.00;10382039;28;20088;-28
2024/01/06 20:06:20;;;;;;;2.75;2.00;;;;;;;18.36;51.47;95932.38;10377304;28;20033;-28
2024/01/06 20:11:20;;;;;;;10.13;2.27;;;;;;;18.34;52.62;95941.72;10382267;28;20513;-28
2024/01/06 20:16:21;;;;;;;6.17;2.07;;;;;;;18.33;52.52;95940.03;10378198;28;20036;-29
2024/01/06 20:21:21;;;;;;;2.47;1.60;;;;;;;18.34;51.92;95941.72;10383576;28;20048;-29
2024/01/06 20:26:22;;;;;;;6.23;2.10;;;;;;;18.35;51.58;95925.66;10384526;28;20413;-30
2024/01/06 20:31:22;;;;;;;2.28;1.38;;;;;;;18.33;52.69;95933.25;10377782;28;20284;-30
2024/01/06 20:36:22;;;;;;;2.43;1.50;;;;;;;18.31;53.23;95927.38;10375655;28;20049;-29
2024/01/06 20:41:23;;;;;;;1.63;1.40;;;;;;;18.36;49.72;95929.84;10380233;28;20284;-29
2024/01/06 20:46:25;;;;;;;5.70;1.57;;;;;;;18.42;49.85;95927.25;10384737;28;20026;-28
2024/01/06 20:51:26;;;;;;;2.08;1.40;;;;;;;18.46;49.48;95927.19;10381742;28;20442;-28
2024/01/06 20:56:26;;;;;;;2.38;1.40;;;;;;;18.50;49.80;95920.41;10384375;28;20037;-30
2024/01/06 21:01:27;;;;;;;1.90;1.40;;;;;;;18.47;47.56;95912.81;10388122;28;20040;-30
2024/01/06 21:06:27;;;;;;;3.40;1.43;;;;;;;18.46;50.52;95912.00;10397144;28;20033;-29
2024/01/06 21:11:28;;;;;;;2.27;1.57;;;;;;;18.49;51.31;95918.72;10384875;28;20296;-28
2024/01/06 21:16:29;;;;;;;2.47;1.63;;;;;;;18.49;52.19;95921.25;10384696;28;20374;-29
2024/01/06 21:21:29;;;;;;;1.80;1.70;;;;;;;18.47;50.60;95918.72;10391976;28;20940;-29
2024/01/06 21:26:31;;;;;;;3.03;1.63;;;;;;;18.30;51.84;95905.44;10385081;28;20797;-30
2024/01/06 21:31:31;;;;;;;3.10;1.80;;;;;;;18.45;51.15;95920.44;10395929;28;20076;-29
2024/01/06 21:36:32;;;;;;;2.10;1.45;;;;;;;18.42;51.67;95914.56;10393428;28;20121;-29
2024/01/06 21:41:32;;;;;;;3.58;1.40;;;;;;;18.43;49.17;95919.59;10386177;28;20033;-31
2024/01/06 21:46:33;;;;;;;2.03;1.83;;;;;;;18.45;51.46;95914.53;10390053;28;20028;-29
2024/01/06 21:51:33;;;;;;;1.87;1.50;;;;;;;18.44;50.93;95915.38;10387735;28;20033;-29
2024/01/06 21:56:34;;;;;;;2.30;1.20;;;;;;;18.45;51.50;95920.44;10393134;28;20029;-29
2024/01/06 22:01:34;;;;;;;3.15;1.92;;;;;;;18.43;51.31;95921.31;10383375;28;20037;-29
2024/01/06 22:06:34;;;;;;;1.38;1.27;;;;;;;18.43;50.24;95922.16;10384642;28;20029;-29
2024/01/06 22:11:38;;;;;;;3.30;1.90;;;;;;;18.40;50.43;95916.31;10384340;28;20040;-29
2024/01/06 22:16:39;;;;;;;1.73;1.35;;;;;;;18.45;49.37;95927.19;10393434;28;20028;-29
2024/01/06 22:21:41;;;;;;;3.00;1.13;;;;;;;18.45;49.95;95924.66;10383508;28;20049;-29
2024/01/06 22:26:41;;;;;;;4.80;2.03;;;;;;;18.43;50.34;95923.84;10378283;28;20116;-29
2024/01/06 22:31:42;;;;;;;3.07;1.60;;;;;;;18.47;50.05;95928.00;10394508;28;20037;-29
2024/01/06 22:36:46;;;;;;;1.83;1.25;;;;;;;18.41;50.08;95920.50;10391099;28;20030;-28
2024/01/06 22:41:48;;;;;;;2.83;1.38;;;;;;;18.44;49.58;95928.06;10383231;28;20172;-29
2024/01/06 22:46:48;;;;;;;1.40;1.00;;;;;;;18.44;50.78;95928.06;10391739;28;20029;-29
2024/01/06 22:51:48;;;;;;;1.80;1.23;;;;;;;18.45;49.86;95925.53;10385082;28;20026;-29
2024/01/06 22:56:49;;;;;;;1.73;1.30;;;;;;;18.46;49.91;95931.41;10391776;28;20079;-29
2024/01/06 23:01:52;;;;;;;4.40;1.60;;;;;;;18.45;51.38;95925.53;10394071;28;20030;-30
2024/01/06 23:06:53;;;;;;;2.20;1.60;;;;;;;18.49;50.46;95928.84;10390358;28;20486;-29
2024/01/06 23:11:54;;;;;;;1.92;1.05;;;;;;;18.51;48.88;95929.66;10392791;28;20079;-30
2024/01/06 23:16:54;;;;;;;2.13;1.20;;;;;;;18.51;48.78;95934.75;10391551;28;20030;-30